createdAt,value
2019-01-06T00:02:16.098Z,10.67
2019-01-06T00:05:07.354Z,13.67
2019-01-06T00:07:54.657Z,6.50
2019-01-06T00:10:41.815Z,7.33
2019-01-06T00:13:28.843Z,9.50
2019-01-06T00:16:15.859Z,11.53
2019-01-06T00:19:03.113Z,9.07
2019-01-06T00:22:10.106Z,9.33
2019-01-06T00:24:57.431Z,5.97
2019-01-06T00:27:48.878Z,6.83
2019-01-06T00:30:35.906Z,8.20
2019-01-06T00:33:33.221Z,12.23
2019-01-06T00:36:24.965Z,8.63
2019-01-06T00:39:12.150Z,9.60
2019-01-06T00:41:59.352Z,9.47
2019-01-06T00:44:46.457Z,9.03
2019-01-06T00:47:43.646Z,9.97
2019-01-06T00:50:41.773Z,10.27
2019-01-06T00:53:30.372Z,10.40
2019-01-06T00:56:18.990Z,13.97
2019-01-06T00:59:13.943Z,12.57
2019-01-06T01:02:02.551Z,11.03
2019-01-06T01:04:47.212Z,10.70
2019-01-06T01:07:34.716Z,10.20
2019-01-06T01:10:20.259Z,7.03
2019-01-06T01:13:17.846Z,8.20
2019-01-06T01:16:05.329Z,7.30
2019-01-06T01:18:59.674Z,8.67
2019-01-06T01:21:47.124Z,7.67
2019-01-06T01:24:34.438Z,7.80
2019-01-06T01:27:15.191Z,9.70
2019-01-06T01:30:06.483Z,11.00
2019-01-06T01:32:55.259Z,7.93
2019-01-06T01:35:52.645Z,7.13
2019-01-06T01:38:41.037Z,8.60
2019-01-06T01:41:38.662Z,9.67
2019-01-06T01:44:30.294Z,11.80
2019-01-06T01:47:13.466Z,8.50
2019-01-06T01:50:04.937Z,9.63
2019-01-06T01:52:52.102Z,9.90
2019-01-06T01:55:47.210Z,10.83
2019-01-06T01:58:32.743Z,8.00
2019-01-06T02:01:13.215Z,7.40
2019-01-06T02:04:16.733Z,10.57
2019-01-06T02:07:11.005Z,7.70
2019-01-06T02:10:02.393Z,7.97
2019-01-06T02:12:56.715Z,10.73
2019-01-06T02:15:57.091Z,8.60
2019-01-06T02:18:54.703Z,7.17
2019-01-06T02:21:41.893Z,8.77
2019-01-06T02:24:33.155Z,8.30
2019-01-06T02:27:30.674Z,7.90
2019-01-06T02:30:31.138Z,11.00
2019-01-06T02:33:20.361Z,8.50
2019-01-06T02:36:23.682Z,7.40
2019-01-06T02:39:24.386Z,6.60
2019-01-06T02:42:21.893Z,6.17
2019-01-06T02:45:22.286Z,5.67
2019-01-06T02:48:09.525Z,5.20
2019-01-06T02:50:56.815Z,5.13
2019-01-06T02:53:57.478Z,7.53
2019-01-06T02:56:44.459Z,6.63
2019-01-06T02:59:31.811Z,5.50
2019-01-06T03:02:15.433Z,4.80
2019-01-06T03:05:02.609Z,4.40
2019-01-06T03:07:43.255Z,4.37
2019-01-06T03:10:30.316Z,6.13
2019-01-06T03:13:24.958Z,7.40
2019-01-06T03:16:13.512Z,5.00
2019-01-06T03:19:14.272Z,6.20
2019-01-06T03:22:01.248Z,6.17
2019-01-06T03:24:45.946Z,7.00
2019-01-06T03:27:52.700Z,4.00
2019-01-06T03:30:30.596Z,4.23
2019-01-06T03:33:17.601Z,4.50
2019-01-06T03:36:14.763Z,4.93
2019-01-06T03:39:06.129Z,5.07
2019-01-06T03:41:53.127Z,7.70
2019-01-06T03:44:40.599Z,4.30
2019-01-06T03:47:29.177Z,5.20
2019-01-06T03:50:19.555Z,4.90
2019-01-06T03:53:08.118Z,4.33
2019-01-06T03:55:55.206Z,4.00
2019-01-06T03:58:32.558Z,4.33
2019-01-06T04:01:15.730Z,3.83
2019-01-06T04:04:16.208Z,4.63
2019-01-06T04:07:10.695Z,4.13
2019-01-06T04:09:57.961Z,4.67
2019-01-06T04:12:35.581Z,3.80
2019-01-06T04:15:22.796Z,3.80
2019-01-06T04:18:23.628Z,6.37
2019-01-06T04:21:15.076Z,4.47
2019-01-06T04:24:06.579Z,6.10
2019-01-06T04:26:57.942Z,15.03
2019-01-06T04:29:58.318Z,6.17
2019-01-06T04:32:43.531Z,4.67
2019-01-06T04:35:30.536Z,6.43
2019-01-06T04:38:34.250Z,5.90
2019-01-06T04:41:37.515Z,8.30
2019-01-06T04:44:44.252Z,12.27
2019-01-06T04:47:31.164Z,6.63
2019-01-06T04:50:36.838Z,5.50
2019-01-06T04:53:23.728Z,4.13
2019-01-06T04:56:11.086Z,7.00
2019-01-06T04:59:02.501Z,6.40
2019-01-06T05:01:49.316Z,9.63
2019-01-06T05:04:40.955Z,7.67
2019-01-06T05:07:35.892Z,9.83
2019-01-06T05:10:27.503Z,9.33
2019-01-06T05:13:18.862Z,5.57
2019-01-06T05:16:01.377Z,6.10
2019-01-06T05:18:49.333Z,7.80
2019-01-06T05:21:40.912Z,5.23
2019-01-06T05:24:32.263Z,5.20
2019-01-06T05:27:26.889Z,5.70
2019-01-06T05:30:18.027Z,6.33
2019-01-06T05:33:18.478Z,4.97
2019-01-06T05:36:12.723Z,4.00
2019-01-06T05:39:01.317Z,4.23
2019-01-06T05:41:58.488Z,5.33
2019-01-06T05:44:48.594Z,5.13
2019-01-06T05:47:46.019Z,4.10
2019-01-06T05:50:34.652Z,9.93
2019-01-06T05:53:21.821Z,7.90
2019-01-06T05:56:15.670Z,10.23
2019-01-06T05:59:04.281Z,11.53
2019-01-06T06:02:03.173Z,12.77
2019-01-06T06:05:06.599Z,25.33
2019-01-06T06:07:53.839Z,2.90
2019-01-06T06:10:41.098Z,4.03
2019-01-06T06:13:48.002Z,3.00
2019-01-06T06:16:35.289Z,7.60
2019-01-06T06:19:24.366Z,9.10
2019-01-06T06:22:13.164Z,6.43
2019-01-06T06:25:13.704Z,28.27
2019-01-06T06:28:07.432Z,2.90
2019-01-06T06:30:59.024Z,3.47
2019-01-06T06:33:56.783Z,22.57
2019-01-06T06:36:38.322Z,19.50
2019-01-06T06:39:26.022Z,12.47
2019-01-06T06:42:26.315Z,12.33
2019-01-06T06:45:30.156Z,4.57
2019-01-06T06:48:17.462Z,3.23
2019-01-06T06:51:30.186Z,3.63
2019-01-06T06:54:30.633Z,5.83
2019-01-06T06:58:13.720Z,5.50
2019-01-06T07:01:17.493Z,16.90
2019-01-06T07:04:06.095Z,7.30
2019-01-06T07:06:53.347Z,7.83
2019-01-06T07:09:40.534Z,7.13
2019-01-06T07:12:27.494Z,10.53
2019-01-06T07:15:14.785Z,6.67
2019-01-06T07:18:08.719Z,5.93
2019-01-06T07:21:17.445Z,17.13
2019-01-06T07:24:04.738Z,35.00
2019-01-06T07:26:56.201Z,25.43
2019-01-06T07:29:43.245Z,53.57
2019-01-06T07:32:37.750Z,61.77
2019-01-06T07:35:25.105Z,10.20
2019-01-06T07:38:22.626Z,6.83
2019-01-06T07:41:09.522Z,8.83
2019-01-06T07:44:12.935Z,18.57
2019-01-06T07:47:00.366Z,7.23
2019-01-06T07:49:38.633Z,20.30
2019-01-06T07:52:30.046Z,21.03
2019-01-06T07:55:17.457Z,9.63
2019-01-06T07:58:22.138Z,10.20
2019-01-06T08:01:09.708Z,8.53
2019-01-06T08:03:56.872Z,6.90
2019-01-06T08:06:51.559Z,8.70
2019-01-06T08:09:43.291Z,11.47
2019-01-06T08:12:30.598Z,11.93
2019-01-06T08:15:18.107Z,19.10
2019-01-06T08:18:09.504Z,14.77
2019-01-06T08:21:01.095Z,20.87
2019-01-06T08:23:48.231Z,34.20
2019-01-06T08:26:51.933Z,13.47
2019-01-06T08:29:41.473Z,19.47
2019-01-06T08:32:39.141Z,16.30
2019-01-06T08:35:36.810Z,29.30
2019-01-06T08:38:23.791Z,13.83
2019-01-06T08:41:18.077Z,12.63
2019-01-06T08:44:09.490Z,13.77
2019-01-06T08:46:57.183Z,24.13
2019-01-06T08:49:44.473Z,33.43
2019-01-06T08:52:42.034Z,38.90
2019-01-06T08:55:30.280Z,112.37
2019-01-06T08:58:17.169Z,42.47
2019-01-06T09:01:04.638Z,48.50
2019-01-06T09:03:51.487Z,24.37
2019-01-06T09:06:38.569Z,26.47
2019-01-06T09:09:26.810Z,17.40
2019-01-06T09:12:15.086Z,16.63
2019-01-06T09:15:10.262Z,14.87
2019-01-06T09:17:59.656Z,16.60
2019-01-06T09:20:47.022Z,14.07
2019-01-06T09:23:46.481Z,19.83
2019-01-06T09:26:35.014Z,23.93
2019-01-06T09:29:23.654Z,25.60
2019-01-06T09:32:12.339Z,15.27
2019-01-06T09:35:08.269Z,32.43
2019-01-06T09:38:05.829Z,27.50
2019-01-06T09:40:52.703Z,19.97
2019-01-06T09:43:47.304Z,31.57
2019-01-06T09:46:54.079Z,186.03
2019-01-06T09:49:41.315Z,95.17
2019-01-06T09:52:36.055Z,32.80
2019-01-06T09:55:27.454Z,15.53
2019-01-06T09:58:21.848Z,14.53
2019-01-06T10:01:22.142Z,15.20
2019-01-06T10:04:13.421Z,10.63
2019-01-06T10:07:03.687Z,25.77
2019-01-06T10:09:55.138Z,12.73
2019-01-06T10:12:46.815Z,10.23
2019-01-06T10:15:38.484Z,15.87
2019-01-06T10:18:27.076Z,32.43
2019-01-06T10:21:24.665Z,9.80
2019-01-06T10:24:28.320Z,12.20
2019-01-06T10:27:25.579Z,9.47
2019-01-06T10:30:27.241Z,18.27
2019-01-06T10:33:25.249Z,11.60
2019-01-06T10:36:16.528Z,9.33
2019-01-06T10:39:06.127Z,7.70
2019-01-06T10:42:09.920Z,12.47
2019-01-06T10:44:58.392Z,11.27
2019-01-06T10:47:52.932Z,11.60
2019-01-06T10:50:47.640Z,8.37
2019-01-06T10:53:51.542Z,8.90
2019-01-06T10:56:43.203Z,6.80
2019-01-06T10:59:39.630Z,6.33
2019-01-06T11:02:26.825Z,10.77
2019-01-06T11:05:15.385Z,8.67
2019-01-06T11:08:03.975Z,9.97
2019-01-06T11:11:02.290Z,9.03
2019-01-06T11:13:49.354Z,9.87
2019-01-06T11:16:44.089Z,7.53
2019-01-06T11:19:31.056Z,9.10
2019-01-06T11:22:37.899Z,6.87
2019-01-06T11:25:35.444Z,7.90
2019-01-06T11:28:23.099Z,174.93
2019-01-06T11:31:11.666Z,62.37
2019-01-06T11:33:58.973Z,19.97
2019-01-06T11:36:46.066Z,29.70
2019-01-06T11:39:37.500Z,29.53
2019-01-06T11:42:26.122Z,7.53
2019-01-06T11:45:13.069Z,13.60
2019-01-06T11:48:00.346Z,20.70
2019-01-06T11:51:17.655Z,9.70
2019-01-06T11:54:15.992Z,13.67
2019-01-06T11:57:10.380Z,15.63
2019-01-06T11:59:57.617Z,7.10
2019-01-06T12:02:44.800Z,9.60
2019-01-06T12:05:51.816Z,10.03
2019-01-06T12:08:41.083Z,14.70
2019-01-06T12:11:49.496Z,12.97
2019-01-06T12:14:36.944Z,7.63
2019-01-06T12:17:17.467Z,12.73
2019-01-06T12:20:04.700Z,15.27
2019-01-06T12:22:56.251Z,25.23
2019-01-06T12:25:43.328Z,19.17
2019-01-06T12:28:50.121Z,18.70
2019-01-06T12:31:44.824Z,18.97
2019-01-06T12:34:32.478Z,49.23
2019-01-06T12:37:23.849Z,8.80
2019-01-06T12:40:11.773Z,13.27
2019-01-06T12:42:58.796Z,27.00
2019-01-06T12:45:56.034Z,35.50
2019-01-06T12:48:50.603Z,21.03
2019-01-06T12:51:48.164Z,22.33
2019-01-06T12:54:40.230Z,27.50
2019-01-06T12:57:44.507Z,42.77
2019-01-06T13:00:31.765Z,406.40
2019-01-06T13:03:38.440Z,63.90
2019-01-06T13:06:20.982Z,51.73
2019-01-06T13:09:19.480Z,43.33
2019-01-06T13:12:06.447Z,32.17
2019-01-06T13:15:06.401Z,38.47
2019-01-06T13:17:55.406Z,118.40
2019-01-06T13:20:38.961Z,16.27
2019-01-06T13:23:37.465Z,14.67
2019-01-06T13:26:24.639Z,14.87
2019-01-06T13:29:22.258Z,15.57
2019-01-06T13:32:12.853Z,16.93
2019-01-06T13:34:59.879Z,18.17
2019-01-06T13:37:46.777Z,31.00
2019-01-06T13:40:35.450Z,21.17
2019-01-06T13:43:32.835Z,17.13
2019-01-06T13:46:20.219Z,23.30
2019-01-06T13:49:14.630Z,50.77
2019-01-06T13:52:13.599Z,24.67
2019-01-06T13:55:07.797Z,17.83
2019-01-06T13:58:02.461Z,22.33
2019-01-06T14:01:00.174Z,40.63
2019-01-06T14:03:53.975Z,15.03
2019-01-06T14:06:57.749Z,31.53
2019-01-06T14:09:56.739Z,48.13
2019-01-06T14:13:03.637Z,28.17
2019-01-06T14:15:52.442Z,12.60
2019-01-06T14:18:55.933Z,16.27
2019-01-06T14:21:53.422Z,16.80
2019-01-06T14:24:57.339Z,28.93
2019-01-06T14:27:55.251Z,13.67
2019-01-06T14:30:47.755Z,28.23
2019-01-06T14:33:42.357Z,20.97
2019-01-06T14:36:29.684Z,23.43
2019-01-06T14:39:20.860Z,21.70
2019-01-06T14:42:11.732Z,28.33
2019-01-06T14:45:06.256Z,42.97
2019-01-06T14:47:53.446Z,28.90
2019-01-06T14:50:45.055Z,56.30
2019-01-06T14:53:48.692Z,63.80
2019-01-06T14:56:55.539Z,39.50
2019-01-06T14:59:41.863Z,30.23
2019-01-06T15:02:28.826Z,21.23
2019-01-06T15:05:20.433Z,23.33
2019-01-06T15:08:07.635Z,50.80
2019-01-06T15:11:14.366Z,63.30
2019-01-06T15:14:01.895Z,43.57
2019-01-06T15:16:48.790Z,27.73
2019-01-06T15:19:55.407Z,31.47
2019-01-06T15:22:42.540Z,24.13
2019-01-06T15:25:31.166Z,45.50
2019-01-06T15:28:19.702Z,57.70
2019-01-06T15:31:14.177Z,25.60
2019-01-06T15:34:01.581Z,33.23
2019-01-06T15:36:48.635Z,44.57
2019-01-06T15:39:45.936Z,48.60
2019-01-06T15:42:33.008Z,62.87
2019-01-06T15:45:20.439Z,56.03
2019-01-06T15:48:16.185Z,49.33
2019-01-06T15:51:03.408Z,54.17
2019-01-06T15:54:01.063Z,69.90
2019-01-06T15:56:48.597Z,64.83
2019-01-06T15:59:37.119Z,53.10
2019-01-06T16:02:28.769Z,56.30
2019-01-06T16:05:26.575Z,43.70
2019-01-06T16:08:12.674Z,58.77
2019-01-06T16:11:10.256Z,60.17
2019-01-06T16:13:59.671Z,56.03
2019-01-06T16:17:03.414Z,59.73
2019-01-06T16:19:50.659Z,61.67
2019-01-06T16:22:40.284Z,51.10
2019-01-06T16:25:27.642Z,57.37
2019-01-06T16:28:16.200Z,73.07
2019-01-06T16:31:06.759Z,67.97
2019-01-06T16:33:54.087Z,74.47
2019-01-06T16:36:41.894Z,81.13
2019-01-06T16:39:33.105Z,98.53
2019-01-06T16:42:36.636Z,88.17
2019-01-06T16:45:25.514Z,104.07
2019-01-06T16:48:12.737Z,148.10
2019-01-06T16:51:19.842Z,111.10
2019-01-06T16:54:04.623Z,103.20
2019-01-06T16:56:51.843Z,89.37
2019-01-06T16:59:55.275Z,182.30
2019-01-06T17:02:46.529Z,163.70
2019-01-06T17:05:33.763Z,124.73
2019-01-06T17:08:21.767Z,136.93
2019-01-06T17:11:16.375Z,137.87
2019-01-06T17:14:05.002Z,146.60
2019-01-06T17:16:47.880Z,171.03
2019-01-06T17:19:45.726Z,184.73
2019-01-06T17:22:35.511Z,175.77
2019-01-06T17:25:26.559Z,159.57
2019-01-06T17:28:13.737Z,157.90
2019-01-06T17:31:17.630Z,163.20
2019-01-06T17:34:04.751Z,147.13
2019-01-06T17:36:52.009Z,145.73
2019-01-06T17:39:49.097Z,175.13
2019-01-06T17:42:36.369Z,156.33
2019-01-06T17:45:25.510Z,175.63
2019-01-06T17:48:28.007Z,173.80
2019-01-06T17:51:34.117Z,176.40
2019-01-06T17:54:34.978Z,174.27
2019-01-06T17:57:32.658Z,160.97
2019-01-06T18:00:18.214Z,169.70
2019-01-06T18:03:06.797Z,189.37
2019-01-06T18:06:07.323Z,202.23
2019-01-06T18:09:10.575Z,178.63
2019-01-06T18:11:57.988Z,186.27
2019-01-06T18:14:41.325Z,199.43
2019-01-06T18:17:30.054Z,194.83
2019-01-06T18:20:18.625Z,211.93
2019-01-06T18:23:07.239Z,234.03
2019-01-06T18:26:05.159Z,225.83
2019-01-06T18:28:52.482Z,181.23
2019-01-06T18:31:47.007Z,169.90
2019-01-06T18:34:35.616Z,155.03
2019-01-06T18:37:23.361Z,161.30
2019-01-06T18:40:30.111Z,149.10
2019-01-06T18:43:17.242Z,135.77
2019-01-06T18:46:05.877Z,144.63
2019-01-06T18:49:00.273Z,147.00
2019-01-06T18:51:46.658Z,137.23
2019-01-06T18:54:33.510Z,240.23
2019-01-06T18:57:31.121Z,284.77
2019-01-06T19:00:18.045Z,234.07
2019-01-06T19:03:18.326Z,170.40
2019-01-06T19:06:07.481Z,145.50
2019-01-06T19:08:56.178Z,145.67
2019-01-06T19:11:43.067Z,180.70
2019-01-06T19:14:29.955Z,157.60
2019-01-06T19:17:17.979Z,182.70
2019-01-06T19:20:18.290Z,438.20
2019-01-06T19:23:18.147Z,579.77
2019-01-06T19:26:21.802Z,535.23
2019-01-06T19:29:09.124Z,478.93
2019-01-06T19:32:09.746Z,351.40
2019-01-06T19:35:04.485Z,229.77
2019-01-06T19:38:11.366Z,168.83
2019-01-06T19:41:15.325Z,143.13
2019-01-06T19:44:02.566Z,136.53
2019-01-06T19:47:03.334Z,143.50
2019-01-06T19:49:52.067Z,154.93
2019-01-06T19:52:34.078Z,180.80
2019-01-06T19:55:22.643Z,171.77
2019-01-06T19:58:09.617Z,156.17
2019-01-06T20:01:00.801Z,151.57
2019-01-06T20:03:52.408Z,151.43
2019-01-06T20:06:43.722Z,177.27
2019-01-06T20:09:31.153Z,173.33
2019-01-06T20:12:22.076Z,174.53
2019-01-06T20:15:08.940Z,162.03
2019-01-06T20:18:10.481Z,142.03
2019-01-06T20:20:57.374Z,128.33
2019-01-06T20:23:57.578Z,132.67
2019-01-06T20:26:51.866Z,129.90
2019-01-06T20:29:39.109Z,159.77
2019-01-06T20:32:42.904Z,179.63
2019-01-06T20:35:40.942Z,170.23
2019-01-06T20:38:40.342Z,174.20
2019-01-06T20:41:47.470Z,174.33
2019-01-06T20:44:34.625Z,170.43
2019-01-06T20:47:26.114Z,184.97
2019-01-06T20:50:13.033Z,192.93
2019-01-06T20:53:10.579Z,180.50
2019-01-06T20:56:17.127Z,186.20
2019-01-06T20:59:04.012Z,169.77
2019-01-06T21:01:51.695Z,153.43
2019-01-06T21:04:40.519Z,220.10
2019-01-06T21:07:28.001Z,216.70
2019-01-06T21:10:22.658Z,194.53
2019-01-06T21:13:29.526Z,213.53
2019-01-06T21:16:33.182Z,173.00
2019-01-06T21:19:35.615Z,171.93
2019-01-06T21:22:23.037Z,166.90
2019-01-06T21:25:17.673Z,171.67
2019-01-06T21:28:05.185Z,207.13
2019-01-06T21:31:02.873Z,244.50
2019-01-06T21:34:03.155Z,254.60
2019-01-06T21:36:58.004Z,265.70
2019-01-06T21:39:48.572Z,234.93
2019-01-06T21:42:40.145Z,218.03
2019-01-06T21:45:28.759Z,205.03
2019-01-06T21:48:23.686Z,190.83
2019-01-06T21:51:03.561Z,176.37
2019-01-06T21:54:04.138Z,176.50
2019-01-06T21:57:05.099Z,168.50
2019-01-06T21:59:52.054Z,175.97
2019-01-06T22:02:39.151Z,159.20
2019-01-06T22:05:39.880Z,166.20
2019-01-06T22:08:43.467Z,161.10
2019-01-06T22:11:25.211Z,166.03
2019-01-06T22:14:28.813Z,165.20
2019-01-06T22:17:23.179Z,180.77
2019-01-06T22:20:07.946Z,175.73
2019-01-06T22:23:05.807Z,200.67
2019-01-06T22:25:47.911Z,210.33
2019-01-06T22:28:42.403Z,199.37
2019-01-06T22:31:37.182Z,205.53
2019-01-06T22:34:37.416Z,207.07
2019-01-06T22:37:40.919Z,209.10
2019-01-06T22:40:32.260Z,209.67
2019-01-06T22:43:23.797Z,197.17
2019-01-06T22:46:18.193Z,201.70
2019-01-06T22:49:09.103Z,193.87
2019-01-06T22:51:50.748Z,198.33
2019-01-06T22:54:47.618Z,204.07
2019-01-06T22:57:46.685Z,208.73
2019-01-06T23:00:44.375Z,208.97
2019-01-06T23:03:32.891Z,208.07
2019-01-06T23:06:20.763Z,212.73
2019-01-06T23:09:27.565Z,217.17
2019-01-06T23:12:22.626Z,228.93
2019-01-06T23:15:14.231Z,211.27
2019-01-06T23:18:08.878Z,239.73
2019-01-06T23:20:57.367Z,219.30
2019-01-06T23:23:45.971Z,219.13
2019-01-06T23:26:37.426Z,245.57
2019-01-06T23:29:24.659Z,231.17
2019-01-06T23:32:11.826Z,240.37
2019-01-06T23:34:58.957Z,238.03
2019-01-06T23:37:47.558Z,234.87
2019-01-06T23:40:39.266Z,247.40
2019-01-06T23:43:26.623Z,255.23
2019-01-06T23:46:18.025Z,247.33
2019-01-06T23:49:06.613Z,246.93
2019-01-06T23:51:58.092Z,262.07
2019-01-06T23:54:52.545Z,257.43
2019-01-06T23:57:39.655Z,260.80
